Ceylon, Minnesota
Current Conditions -  °F | °C
As of 2:52 AM on Monday 20 Oct 2014 (Local Time) from KEST Reporting Station
Clear Clear  
Wind Chill: 37°   Ceiling: Unl
Heat Index: 42°   Visibility: 10mi
Dew Point: 37°   Wind: 9mph
Humidity: 82%   Direction: 310°NW
Pressure: 29.96"   Gusts: NA
Location:  43.53°N, 94.63°W
Report Text: KEST 200752Z AUTO 31008KT 10SM CLR 06/03 A2996 RMK AO2 SLP148 T00560028
Loading
Personal Weather Stations






























Interactive Weather Map
Tropical Storm Tracking
New forecast layout! Learn more

10-Day Weather Forecast

Advertisements
Track Severe Weather on mobile